Time;durP1;ratioP1;P1;durP2;ratioP2;P2;SDS_P1;SDS_P2;PMS_P1;PMS_P2;Temp;Humidity;BMP_temperature;BMP_pressure;BME280_temperature;BME280_humidity;BME280_pressure;Samples;Min_cycle;Max_cycle;Signal;HPM_P1;HPM_P2
2021/06/25 00:05:46;;;;;;;5.73;4.53;;;;;;;19.37;73.85;99253.44;531944;1090;116499;-68
2021/06/25 00:15:53;;;;;;;10.03;5.30;;;;;;;19.32;74.63;99247.78;516650;1089;116611;-69
2021/06/25 00:25:59;;;;;;;10.23;7.70;;;;;;;19.18;75.28;99266.06;532620;1088;117318;-69
2021/06/25 00:36:06;;;;;;;20.95;18.60;;;;;;;19.05;75.90;99247.06;523457;1090;116395;-69
2021/06/25 00:46:18;;;;;;;24.23;21.77;;;;;;;18.80;76.53;99238.95;532620;1088;116834;-69
2021/06/25 00:56:25;;;;;;;22.10;19.50;;;;;;;18.76;77.24;99312.08;532262;1090;117417;-69
2021/06/25 01:06:31;;;;;;;25.97;23.10;;;;;;;18.76;77.01;99312.08;531775;1089;116935;-69
2021/06/25 01:16:38;;;;;;;22.90;20.60;;;;;;;18.82;76.91;99366.47;529648;1088;117087;-69
2021/06/25 01:26:45;;;;;;;17.27;15.27;;;;;;;18.80;76.39;99398.53;531584;1089;117047;-69
2021/06/25 01:36:51;;;;;;;17.10;15.33;;;;;;;18.77;76.34;99417.47;528403;1090;116470;-69
2021/06/25 01:46:58;;;;;;;21.30;18.00;;;;;;;18.41;76.61;99410.41;529540;1089;116548;-69
2021/06/25 01:57:05;;;;;;;21.10;18.93;;;;;;;18.34;76.78;99409.34;531819;1088;116816;-70
2021/06/25 02:07:11;;;;;;;21.00;18.30;;;;;;;18.26;76.38;99423.41;532499;1089;116553;-69
2021/06/25 02:17:18;;;;;;;19.07;17.10;;;;;;;18.22;76.62;99411.39;532519;1089;116480;-70
2021/06/25 02:27:25;;;;;;;19.47;17.37;;;;;;;18.13;76.63;99401.70;531478;1089;117326;-70
2021/06/25 02:37:31;;;;;;;22.10;19.87;;;;;;;18.03;76.71;99423.01;530833;1089;116548;-70
2021/06/25 02:47:38;;;;;;;22.03;19.80;;;;;;;18.12;76.66;99419.45;532613;1089;116432;-70
2021/06/25 02:57:44;;;;;;;23.02;20.55;;;;;;;18.20;76.79;99405.39;531048;1090;116736;-70
2021/06/25 03:07:51;;;;;;;27.17;20.10;;;;;;;18.17;76.84;99371.17;531167;1090;116746;-70
2021/06/25 03:17:58;;;;;;;22.33;20.00;;;;;;;18.07;76.80;99296.88;531305;1088;116297;-69
2021/06/25 03:28:05;;;;;;;27.53;22.73;;;;;;;18.06;77.24;99191.58;532635;1090;117095;-69
2021/06/25 03:38:11;;;;;;;25.80;23.00;;;;;;;17.93;77.40;99243.26;532500;1090;116652;-70
2021/06/25 03:48:18;;;;;;;18.80;16.10;;;;;;;17.98;77.16;99345.57;531737;1089;117572;-70
2021/06/25 03:58:24;;;;;;;17.05;15.25;;;;;;;18.01;76.70;99366.52;532603;1089;117235;-70
2021/06/25 04:08:32;;;;;;;15.10;13.57;;;;;;;18.03;76.60;99386.66;532595;1088;116734;-70
2021/06/25 04:18:38;;;;;;;14.00;12.57;;;;;;;18.02;76.13;99390.28;531836;1089;116604;-70
2021/06/25 04:28:45;;;;;;;11.37;10.07;;;;;;;18.15;75.95;99394.41;532624;1089;116795;-70
2021/06/25 04:38:51;;;;;;;13.30;10.83;;;;;;;18.38;75.28;99413.36;516226;1090;117194;-70
2021/06/25 04:48:57;;;;;;;12.27;11.07;;;;;;;18.54;75.33;99401.20;532155;1089;118174;-69
2021/06/25 04:59:04;;;;;;;10.93;9.87;;;;;;;18.99;74.16;99413.47;532271;1090;117283;-70
2021/06/25 05:09:10;;;;;;;11.77;9.87;;;;;;;19.11;73.37;99423.87;531786;1089;117037;-69
2021/06/25 05:19:17;;;;;;;11.97;9.10;;;;;;;19.26;73.16;99434.73;532588;1090;117156;-70
2021/06/25 05:29:23;;;;;;;9.60;8.53;;;;;;;19.29;72.61;99426.45;530835;1090;117191;-70
2021/06/25 05:39:30;;;;;;;8.27;7.50;;;;;;;19.50;72.65;99425.19;516096;1089;116374;-70
2021/06/25 05:49:37;;;;;;;9.77;8.77;;;;;;;19.68;71.72;99444.57;528361;1089;116584;-70
2021/06/25 05:59:44;;;;;;;7.50;6.80;;;;;;;19.79;71.04;99442.61;519379;1088;116319;-69
2021/06/25 06:09:52;;;;;;;7.63;6.83;;;;;;;19.60;70.88;99436.55;527564;1090;115696;-70
2021/06/25 06:19:58;;;;;;;8.35;7.45;;;;;;;19.83;70.50;99433.28;532338;1089;116512;-70
2021/06/25 06:40:31;;;;;;;12.73;7.43;;;;;;;19.74;69.93;99445.75;529835;1089;117696;-70
2021/06/25 06:50:39;;;;;;;8.40;7.60;;;;;;;19.69;69.79;99440.91;532478;1089;116332;-69
2021/06/25 07:00:46;;;;;;;10.20;6.80;;;;;;;20.09;69.47;99448.38;531283;1089;117300;-66
2021/06/25 07:11:03;;;;;;;8.63;6.40;;;;;;;20.51;68.35;99455.40;532606;1088;116434;-63
2021/06/25 07:21:10;;;;;;;5.63;5.10;;;;;;;20.64;68.14;99464.73;528409;1090;116147;-71
2021/06/25 07:31:16;;;;;;;5.90;5.30;;;;;;;20.96;66.63;99465.74;520405;1089;116545;-66
2021/06/25 07:41:23;;;;;;;5.40;4.90;;;;;;;21.36;65.69;99466.66;504266;1090;10001648;-64
2021/06/25 07:51:30;;;;;;;4.70;4.23;;;;;;;21.55;64.72;99465.42;531272;1088;117655;-66
2021/06/25 08:01:36;;;;;;;4.30;3.90;;;;;;;22.16;63.06;99471.15;526176;1089;172180;-66
2021/06/25 08:11:44;;;;;;;5.17;4.73;;;;;;;22.14;62.49;99457.95;520369;1089;117504;-64
2021/06/25 08:21:51;;;;;;;5.30;4.47;;;;;;;23.00;61.01;99458.77;532531;1090;115706;-65
2021/06/25 08:31:57;;;;;;;4.77;4.40;;;;;;;22.46;60.62;99463.26;532572;1089;116859;-65
2021/06/25 08:42:06;;;;;;;3.87;3.57;;;;;;;22.05;61.08;99467.87;531925;1089;117070;-66
2021/06/25 08:52:12;;;;;;;5.33;3.47;;;;;;;23.07;59.84;99470.42;532538;1089;115890;-65
2021/06/25 09:02:20;;;;;;;4.20;3.90;;;;;;;23.21;57.87;99491.02;532618;1090;116480;-66
2021/06/25 09:12:27;;;;;;;4.50;3.53;;;;;;;22.92;58.68;99475.75;531115;1090;116624;-65
2021/06/25 09:22:48;;;;;;;5.50;3.53;;;;;;;22.92;58.01;99473.08;532608;1089;116758;-66
2021/06/25 09:32:56;;;;;;;3.13;2.93;;;;;;;22.35;58.62;99456.47;531949;1088;116353;-66
2021/06/25 09:43:12;;;;;;;;;;;;;;;23.30;58.10;99464.19;531048;1089;116222;-65
2021/06/25 09:53:18;;;;;;;3.20;2.90;;;;;;;23.76;56.37;99458.59;532811;1088;103770;-69
2021/06/25 10:03:25;;;;;;;5.67;3.43;;;;;;;22.84;56.63;99470.47;531807;1089;116156;-67
2021/06/25 10:13:35;;;;;;;2.80;2.60;;;;;;;23.82;56.33;99480.30;531217;1089;116724;-64
2021/06/25 10:23:47;;;;;;;3.07;2.87;;;;;;;23.96;55.44;99470.56;531375;1089;116720;-64
2021/06/25 10:33:55;;;;;;;4.90;3.60;;;;;;;23.03;55.29;99461.92;532567;1088;116401;-67
2021/06/25 10:44:01;;;;;;;3.83;3.50;;;;;;;22.21;56.88;99463.41;532618;1088;118085;-69
2021/06/25 10:54:12;;;;;;;4.07;3.77;;;;;;;22.85;56.83;99478.33;531853;1089;116233;-72
2021/06/25 11:04:37;;;;;;;5.68;3.38;;;;;;;22.30;57.18;99486.42;517926;1088;115604;-72
2021/06/25 11:14:44;;;;;;;4.77;4.40;;;;;;;21.63;58.03;99501.95;531788;1089;116003;-69
2021/06/25 11:24:53;;;;;;;9.73;7.27;;;;;;;20.85;60.98;99528.31;532515;1088;116044;-66
2021/06/25 11:35:36;;;;;;;5.90;4.87;;;;;;;20.89;61.94;99491.42;522240;1088;115673;-67
2021/06/25 11:45:49;;;;;;;5.27;4.77;;;;;;;21.53;61.97;99512.00;532482;1089;115807;-66
2021/06/25 11:55:59;;;;;;;4.20;3.90;;;;;;;21.75;60.79;99510.44;532421;1089;116312;-64
2021/06/25 12:06:07;;;;;;;3.73;3.30;;;;;;;22.37;60.18;99516.80;531679;1089;115712;-63
2021/06/25 12:16:14;;;;;;;5.78;3.90;;;;;;;22.09;60.26;99506.59;532503;1089;116352;-64
2021/06/25 12:26:22;;;;;;;12.90;5.27;;;;;;;22.96;59.61;99525.23;531170;1088;116613;-68
2021/06/25 12:36:28;;;;;;;5.30;2.90;;;;;;;23.32;57.77;99534.48;531759;1088;115992;-69
2021/06/25 12:46:35;;;;;;;7.33;2.97;;;;;;;23.08;57.93;99534.48;532393;1089;116540;-66
2021/06/25 12:56:44;;;;;;;3.00;2.67;;;;;;;23.13;57.32;99533.95;531699;1088;117054;-66
2021/06/25 13:06:52;;;;;;;4.90;2.83;;;;;;;23.50;56.41;99524.24;532387;1089;117044;-67
2021/06/25 13:16:58;;;;;;;;;;;;;;;23.20;55.47;99523.33;532630;1088;116945;-67
2021/06/25 13:27:13;;;;;;;3.30;3.00;;;;;;;23.06;56.37;99527.67;531745;1088;103620;-67
2021/06/25 13:37:19;;;;;;;4.40;2.80;;;;;;;23.20;55.53;99539.41;532492;1089;116441;-68
2021/06/25 13:47:34;;;;;;;3.07;2.50;;;;;;;23.14;55.61;99529.44;530370;1090;115673;-72
2021/06/25 13:57:53;;;;;;;4.13;2.90;;;;;;;22.97;55.97;99526.92;532373;1089;115882;-71
2021/06/25 14:08:02;;;;;;;2.70;2.20;;;;;;;22.90;55.87;99520.62;528329;1089;116499;-70
2021/06/25 14:18:14;;;;;;;3.00;2.70;;;;;;;22.97;55.19;99539.46;529107;1089;116039;-70
2021/06/25 14:28:28;;;;;;;5.03;2.70;;;;;;;23.10;55.25;99526.28;528560;1088;115557;-70
2021/06/25 14:38:35;;;;;;;6.33;2.50;;;;;;;23.17;54.97;99510.31;532232;1089;116332;-70
2021/06/25 14:48:42;;;;;;;3.83;2.15;;;;;;;23.07;54.32;99513.27;532126;1090;116604;-71
2021/06/25 14:58:49;;;;;;;3.00;2.70;;;;;;;22.93;54.67;99513.06;532625;1089;118258;-71
2021/06/25 15:08:56;;;;;;;2.20;2.00;;;;;;;22.84;55.07;99502.59;531900;1090;116128;-71
2021/06/25 15:19:02;;;;;;;3.10;1.80;;;;;;;23.22;54.64;99510.62;532689;1090;115861;-69
2021/06/25 15:29:09;;;;;;;2.43;1.40;;;;;;;23.42;54.19;99502.05;532622;1088;116036;-69
2021/06/25 15:39:17;;;;;;;1.77;1.40;;;;;;;22.87;54.00;99487.00;522987;1088;116767;-69
2021/06/25 15:49:24;;;;;;;4.28;2.20;;;;;;;22.62;55.17;99492.58;532572;1088;115567;-70
2021/06/25 15:59:31;;;;;;;5.80;2.40;;;;;;;22.56;55.87;99489.78;532540;1089;116041;-69
2021/06/25 16:09:42;;;;;;;4.37;2.50;;;;;;;22.21;56.68;99503.52;531812;1089;116196;-69
2021/06/25 16:19:48;;;;;;;4.50;2.70;;;;;;;21.97;57.16;99491.96;532119;1089;116141;-70
2021/06/25 16:29:54;;;;;;;3.10;2.90;;;;;;;21.74;57.58;99475.89;531865;1089;116163;-70
2021/06/25 16:40:01;;;;;;;3.43;3.00;;;;;;;21.46;58.19;99474.47;532610;1089;115689;-69
2021/06/25 16:50:09;;;;;;;2.50;2.30;;;;;;;21.18;58.88;99469.55;532525;1089;116155;-69
2021/06/25 17:00:17;;;;;;;4.33;3.23;;;;;;;20.97;59.50;99468.25;531694;1089;117038;-70
2021/06/25 17:10:22;;;;;;;;;;;;;;;21.32;59.64;99454.64;532511;1088;116440;-72
2021/06/25 17:20:28;;;;;;;5.07;3.73;;;;;;;21.57;59.19;99457.22;532739;1089;102506;-64
2021/06/25 17:30:37;;;;;;;3.87;3.40;;;;;;;21.57;58.17;99457.22;531798;1090;117404;-65
2021/06/25 17:40:42;;;;;;;;;;;;;;;21.25;58.38;99459.02;532556;1089;116337;-65
2021/06/25 17:50:49;;;;;;;5.13;4.53;;;;;;;20.93;58.80;99458.90;530878;1088;102934;-64
2021/06/25 18:00:56;;;;;;;4.17;3.77;;;;;;;21.48;58.55;99472.45;532591;1089;116620;-65
2021/06/25 18:11:02;;;;;;;4.23;3.63;;;;;;;20.82;59.68;99486.78;532500;1089;117337;-65
2021/06/25 18:21:09;;;;;;;8.67;3.93;;;;;;;20.62;60.44;99504.92;531493;1088;115914;-64
2021/06/25 18:31:18;;;;;;;3.77;2.77;;;;;;;20.51;61.41;99518.59;532495;1088;116334;-65
2021/06/25 18:41:26;;;;;;;4.17;3.57;;;;;;;20.49;62.24;99534.75;505800;1089;10001610;-70
2021/06/25 18:51:33;;;;;;;6.28;3.38;;;;;;;20.24;62.63;99557.84;531704;1089;116948;-69
2021/06/25 19:01:39;;;;;;;4.33;3.13;;;;;;;19.88;63.53;99575.67;532478;1089;117739;-69
2021/06/25 19:11:46;;;;;;;3.77;3.40;;;;;;;19.57;64.43;99584.19;515867;1088;116205;-68
2021/06/25 19:21:54;;;;;;;4.50;4.10;;;;;;;19.30;65.05;99595.81;514769;1090;116900;-67
2021/06/25 19:32:01;;;;;;;3.53;3.27;;;;;;;18.97;65.97;99585.70;529362;1088;115800;-69
2021/06/25 19:42:09;;;;;;;5.40;4.43;;;;;;;18.63;66.73;99557.98;531721;1089;116784;-68
2021/06/25 19:52:17;;;;;;;4.70;4.30;;;;;;;18.32;67.66;99560.98;530837;1088;116652;-67
2021/06/25 20:02:23;;;;;;;;;;;;;;;18.10;68.43;99556.08;532451;1089;117089;-68
2021/06/25 20:12:29;;;;;;;4.47;4.07;;;;;;;17.96;68.56;99544.11;532093;1089;101955;-68
2021/06/25 20:22:36;;;;;;;7.10;6.50;;;;;;;17.79;69.37;99542.09;532529;1089;116419;-68
2021/06/25 20:32:43;;;;;;;8.30;7.33;;;;;;;17.44;69.79;99540.95;531738;1089;115753;-68
2021/06/25 20:42:49;;;;;;;8.63;6.07;;;;;;;17.21;70.50;99525.38;532463;1089;116900;-69
2021/06/25 20:52:56;;;;;;;18.43;6.93;;;;;;;17.23;70.64;99533.17;530038;1089;116340;-73
2021/06/25 21:03:03;;;;;;;9.80;6.40;;;;;;;17.11;70.77;99537.81;531820;1088;117284;-64
2021/06/25 21:13:11;;;;;;;7.60;6.63;;;;;;;17.09;71.01;99535.30;532515;1089;116647;-65
2021/06/25 21:23:19;;;;;;;7.53;5.83;;;;;;;16.78;71.20;99546.03;532528;1089;117525;-64
2021/06/25 21:33:29;;;;;;;10.50;6.20;;;;;;;16.55;71.91;99553.42;530452;1088;116865;-64
2021/06/25 21:43:36;;;;;;;9.98;7.38;;;;;;;16.49;72.22;99561.92;532495;1089;116527;-64
2021/06/25 21:53:42;;;;;;;9.87;6.77;;;;;;;16.61;72.45;99541.44;531808;1089;116744;-64
2021/06/25 22:03:49;;;;;;;7.25;6.55;;;;;;;16.68;72.58;99558.47;532457;1089;116322;-65
2021/06/25 22:13:56;;;;;;;6.70;6.10;;;;;;;16.62;72.69;99565.16;532388;1090;116186;-65
2021/06/25 22:24:05;;;;;;;7.95;6.18;;;;;;;16.53;72.87;99585.36;531763;1088;116251;-64
2021/06/25 22:34:12;;;;;;;7.73;6.57;;;;;;;16.51;72.93;99579.36;532524;1089;117321;-64
2021/06/25 22:44:19;;;;;;;6.53;5.10;;;;;;;16.59;72.83;99583.97;532550;1089;117352;-66
2021/06/25 22:54:26;;;;;;;10.03;6.50;;;;;;;16.52;72.75;99601.42;531724;1090;117009;-64
2021/06/25 23:04:32;;;;;;;7.83;6.23;;;;;;;16.39;73.28;99589.27;532531;1089;116578;-64
2021/06/25 23:14:39;;;;;;;8.87;5.37;;;;;;;16.35;73.34;99584.38;532411;1088;116295;-65
2021/06/25 23:24:46;;;;;;;7.23;4.73;;;;;;;16.50;73.87;99592.74;532480;1088;116147;-63
2021/06/25 23:34:52;;;;;;;5.37;4.90;;;;;;;16.65;74.17;99594.05;530796;1089;116407;-64
2021/06/25 23:44:59;;;;;;;6.10;5.50;;;;;;;16.89;74.04;99600.75;522969;1088;116382;-63
2021/06/25 23:55:08;;;;;;;9.73;6.77;;;;;;;17.01;73.88;99590.86;520588;1089;116382;-63
